createdAt,value
2018-04-28T00:00:53.932Z,81.41
2018-04-28T00:01:53.917Z,81.41
2018-04-28T00:02:53.914Z,82.27
2018-04-28T00:03:53.911Z,81.89
2018-04-28T00:04:53.923Z,82.37
2018-04-28T00:05:53.915Z,81.32
2018-04-28T00:06:53.901Z,81.41
2018-04-28T00:07:53.979Z,81.32
2018-04-28T00:08:53.897Z,82.04
2018-04-28T00:09:53.893Z,81.95
2018-04-28T00:10:53.889Z,81.85
2018-04-28T00:11:53.897Z,81.89
2018-04-28T00:12:53.882Z,81.85
2018-04-28T00:13:53.878Z,82.04
2018-04-28T00:14:53.877Z,81.79
2018-04-28T00:15:53.947Z,82.04
2018-04-28T00:16:53.876Z,82.27
2018-04-28T00:17:53.865Z,81.76
2018-04-28T00:18:53.896Z,82.18
2018-04-28T00:19:53.860Z,81.66
2018-04-28T00:20:53.865Z,82.23
2018-04-28T00:21:53.854Z,82.32
2018-04-28T00:22:53.854Z,82.42
2018-04-28T00:23:53.847Z,82.32
2018-04-28T00:24:53.846Z,82.90
2018-04-28T00:25:53.842Z,82.99
2018-04-28T00:26:55.467Z,82.90
2018-04-28T00:27:53.850Z,82.70
2018-04-28T00:28:53.832Z,82.70
2018-04-28T00:29:53.827Z,82.32
2018-04-28T00:30:53.828Z,82.80
2018-04-28T00:31:53.829Z,82.80
2018-04-28T00:32:53.819Z,82.70
2018-04-28T00:33:53.822Z,82.70
2018-04-28T00:34:53.824Z,83.18
2018-04-28T00:35:53.812Z,83.47
2018-04-28T00:36:53.811Z,83.18
2018-04-28T00:37:53.812Z,83.09
2018-04-28T00:38:53.819Z,83.18
2018-04-28T00:39:53.824Z,82.99
2018-04-28T00:40:53.821Z,83.28
2018-04-28T00:41:53.794Z,83.47
2018-04-28T00:42:53.786Z,82.99
2018-04-28T00:43:53.786Z,83.18
2018-04-28T00:44:53.791Z,83.47
2018-04-28T00:45:53.775Z,83.09
2018-04-28T00:46:54.412Z,83.37
2018-04-28T00:47:53.769Z,83.47
2018-04-28T00:48:53.766Z,83.18
2018-04-28T00:49:53.761Z,83.28
2018-04-28T00:50:53.761Z,83.28
2018-04-28T00:51:53.760Z,82.90
2018-04-28T00:52:53.751Z,82.99
2018-04-28T00:53:53.749Z,83.28
2018-04-28T00:54:53.744Z,82.90
2018-04-28T00:55:53.756Z,83.28
2018-04-28T00:56:53.740Z,82.99
2018-04-28T00:57:53.734Z,83.65
2018-04-28T00:58:53.736Z,83.28
2018-04-28T00:59:53.773Z,83.18
2018-04-28T01:00:53.724Z,83.37
2018-04-28T01:01:53.724Z,83.47
2018-04-28T01:02:53.721Z,83.47
2018-04-28T01:03:53.719Z,83.65
2018-04-28T01:04:53.720Z,83.65
2018-04-28T01:05:53.720Z,83.37
2018-04-28T01:06:53.710Z,83.47
2018-04-28T01:07:53.701Z,83.28
2018-04-28T01:08:53.729Z,82.61
2018-04-28T01:09:53.693Z,83.09
2018-04-28T01:10:53.692Z,82.65
2018-04-28T01:11:53.690Z,82.32
2018-04-28T01:12:53.687Z,83.09
2018-04-28T01:13:53.691Z,82.61
2018-04-28T01:14:53.679Z,83.37
2018-04-28T01:15:53.681Z,82.99
2018-04-28T01:16:53.673Z,83.28
2018-04-28T01:17:53.671Z,83.09
2018-04-28T01:18:53.665Z,83.18
2018-04-28T01:19:53.682Z,82.99
2018-04-28T01:20:53.667Z,83.37
2018-04-28T01:21:53.667Z,82.99
2018-04-28T01:22:53.654Z,83.47
2018-04-28T01:23:55.476Z,83.85
2018-04-28T01:24:53.713Z,84.04
2018-04-28T01:25:53.788Z,83.85
2018-04-28T01:26:53.683Z,83.94
2018-04-28T01:27:53.636Z,83.65
2018-04-28T01:28:53.666Z,82.90
2018-04-28T01:29:53.636Z,83.37
2018-04-28T01:30:53.626Z,83.18
2018-04-28T01:31:53.621Z,83.09
2018-04-28T01:32:53.653Z,83.47
2018-04-28T01:33:53.614Z,83.56
2018-04-28T01:34:53.610Z,83.28
2018-04-28T01:35:53.607Z,83.85
2018-04-28T01:36:53.603Z,83.37
2018-04-28T01:37:53.601Z,83.85
2018-04-28T01:38:53.601Z,83.37
2018-04-28T01:39:53.599Z,83.65
2018-04-28T01:40:53.596Z,83.65
2018-04-28T01:41:53.589Z,83.37
2018-04-28T01:42:53.583Z,83.85
2018-04-28T01:43:53.578Z,84.23
2018-04-28T01:44:53.588Z,83.94
2018-04-28T01:45:53.582Z,84.23
2018-04-28T01:46:53.570Z,84.13
2018-04-28T01:47:53.647Z,84.04
2018-04-28T01:48:53.564Z,84.23
2018-04-28T01:49:53.558Z,84.04
2018-04-28T01:50:53.583Z,84.04
2018-04-28T01:51:53.555Z,83.94
2018-04-28T01:52:53.550Z,84.04
2018-04-28T01:53:53.547Z,84.04
2018-04-28T01:54:53.544Z,84.04
2018-04-28T01:55:53.537Z,84.04
2018-04-28T01:56:53.540Z,84.04
2018-04-28T01:57:53.538Z,83.94
2018-04-28T01:58:53.527Z,84.04
2018-04-28T01:59:53.552Z,84.13
2018-04-28T02:00:53.519Z,84.42
2018-04-28T02:01:53.517Z,84.42
2018-04-28T02:02:53.514Z,84.23
2018-04-28T02:03:53.511Z,83.94
2018-04-28T02:04:53.508Z,84.04
2018-04-28T02:05:53.502Z,84.04
2018-04-28T02:06:53.499Z,84.04
2018-04-28T02:07:53.506Z,84.04
2018-04-28T02:08:53.522Z,83.94
2018-04-28T02:09:53.487Z,83.85
2018-04-28T02:10:53.486Z,84.23
2018-04-28T02:11:53.481Z,84.04
2018-04-28T02:12:53.478Z,84.13
2018-04-28T02:13:53.475Z,83.85
2018-04-28T02:14:53.473Z,83.85
2018-04-28T02:15:53.467Z,83.94
2018-04-28T02:16:53.476Z,84.23
2018-04-28T02:17:53.462Z,84.23
2018-04-28T02:18:53.669Z,84.33
2018-04-28T02:19:53.452Z,84.42
2018-04-28T02:20:53.451Z,84.04
2018-04-28T02:21:53.448Z,83.56
2018-04-28T02:22:53.443Z,83.75
2018-04-28T02:23:53.442Z,83.85
2018-04-28T02:24:53.440Z,83.09
2018-04-28T02:25:53.436Z,83.75
2018-04-28T02:26:53.430Z,84.13
2018-04-28T02:27:53.428Z,83.09
2018-04-28T02:28:53.423Z,82.90
2018-04-28T02:29:53.422Z,82.99
2018-04-28T02:30:53.416Z,83.09
2018-04-28T02:31:53.414Z,82.99
2018-04-28T02:32:53.408Z,83.18
2018-04-28T02:33:53.415Z,83.28
2018-04-28T02:34:53.402Z,82.90
2018-04-28T02:35:53.397Z,83.37
2018-04-28T02:36:53.391Z,83.47
2018-04-28T02:37:53.418Z,83.28
2018-04-28T02:38:53.385Z,83.47
2018-04-28T02:39:53.382Z,83.37
2018-04-28T02:40:53.385Z,83.56
2018-04-28T02:41:53.374Z,83.47
2018-04-28T02:42:53.370Z,83.47
2018-04-28T02:43:53.366Z,83.65
2018-04-28T02:44:53.364Z,83.85
2018-04-28T02:45:53.367Z,83.94
2018-04-28T02:46:53.353Z,84.42
2018-04-28T02:47:53.352Z,83.94
2018-04-28T02:48:53.353Z,84.23
2018-04-28T02:49:54.048Z,84.13
2018-04-28T02:50:53.343Z,83.65
2018-04-28T02:51:53.345Z,83.71
2018-04-28T02:52:53.360Z,84.42
2018-04-28T02:53:53.330Z,83.85
2018-04-28T02:54:53.327Z,83.52
2018-04-28T02:55:53.322Z,83.90
2018-04-28T02:56:53.327Z,84.38
2018-04-28T02:57:53.320Z,84.09
2018-04-28T02:58:53.318Z,84.38
2018-04-28T02:59:53.307Z,84.28
2018-04-28T03:00:53.305Z,84.00
2018-04-28T03:01:53.300Z,84.76
2018-04-28T03:02:53.304Z,84.56
2018-04-28T03:03:53.292Z,84.47
2018-04-28T03:04:53.288Z,84.56
2018-04-28T03:05:53.289Z,84.19
2018-04-28T03:06:53.287Z,84.00
2018-04-28T03:07:53.275Z,84.38
2018-04-28T03:08:53.274Z,84.56
2018-04-28T03:09:53.268Z,84.28
2018-04-28T03:10:53.266Z,84.38
2018-04-28T03:11:53.261Z,84.38
2018-04-28T03:12:53.257Z,84.38
2018-04-28T03:13:53.259Z,84.19
2018-04-28T03:14:53.249Z,84.76
2018-04-28T03:15:53.247Z,84.47
2018-04-28T03:16:53.248Z,84.56
2018-04-28T03:17:53.263Z,84.56
2018-04-28T03:18:53.243Z,84.76
2018-04-28T03:19:53.233Z,84.56
2018-04-28T03:20:53.226Z,84.47
2018-04-28T03:21:53.222Z,84.47
2018-04-28T03:22:53.218Z,85.04
2018-04-28T03:23:53.238Z,84.95
2018-04-28T03:24:53.211Z,84.28
2018-04-28T03:25:53.212Z,85.04
2018-04-28T03:26:53.202Z,84.56
2018-04-28T03:27:53.203Z,84.85
2018-04-28T03:28:53.226Z,85.24
2018-04-28T03:29:53.193Z,85.24
2018-04-28T03:30:53.188Z,85.24
2018-04-28T03:31:53.186Z,85.14
2018-04-28T03:32:53.179Z,84.76
2018-04-28T03:33:53.176Z,85.14
2018-04-28T03:34:53.175Z,85.33
2018-04-28T03:35:53.172Z,85.14
2018-04-28T03:36:53.163Z,84.95
2018-04-28T03:37:53.162Z,85.33
2018-04-28T03:38:53.164Z,85.52
2018-04-28T03:39:53.150Z,85.42
2018-04-28T03:40:53.149Z,85.42
2018-04-28T03:41:53.143Z,85.61
2018-04-28T03:42:53.138Z,85.52
2018-04-28T03:43:53.135Z,85.52
2018-04-28T03:44:53.129Z,85.71
2018-04-28T03:45:53.126Z,85.42
2018-04-28T03:46:53.123Z,85.71
2018-04-28T03:47:53.117Z,85.61
2018-04-28T03:48:53.113Z,85.66
2018-04-28T03:49:53.108Z,85.47
2018-04-28T03:50:53.107Z,85.61
2018-04-28T03:51:53.104Z,85.14
2018-04-28T03:52:53.098Z,85.52
2018-04-28T03:53:53.094Z,86.18
2018-04-28T03:54:53.099Z,85.95
2018-04-28T03:55:53.102Z,85.86
2018-04-28T03:56:53.084Z,85.90
2018-04-28T03:57:53.076Z,85.76
2018-04-28T03:58:53.071Z,85.47
2018-04-28T03:59:53.068Z,85.86
2018-04-28T04:00:53.067Z,85.57
2018-04-28T04:01:53.063Z,85.86
2018-04-28T04:02:53.054Z,85.95
2018-04-28T04:03:53.051Z,85.66
2018-04-28T04:04:53.048Z,85.76
2018-04-28T04:05:53.049Z,85.66
2018-04-28T04:06:53.037Z,86.14
2018-04-28T04:07:53.048Z,86.33
2018-04-28T04:08:53.034Z,85.66
2018-04-28T04:09:53.032Z,85.95
2018-04-28T04:10:53.027Z,86.33
2018-04-28T04:11:53.019Z,86.71
2018-04-28T04:12:53.016Z,86.71
2018-04-28T04:13:53.008Z,86.71
2018-04-28T04:14:53.010Z,86.99
2018-04-28T04:15:53.001Z,86.99
2018-04-28T04:16:53.008Z,86.43
2018-04-28T04:17:52.993Z,86.33
2018-04-28T04:18:52.993Z,86.61
2018-04-28T04:19:52.983Z,86.52
2018-04-28T04:20:52.982Z,86.52
2018-04-28T04:21:54.505Z,86.90
2018-04-28T04:22:52.975Z,86.52
2018-04-28T04:23:52.969Z,86.24
2018-04-28T04:24:52.963Z,86.33
2018-04-28T04:25:52.955Z,86.71
2018-04-28T04:26:52.957Z,86.99
2018-04-28T04:27:52.951Z,86.52
2018-04-28T04:28:52.976Z,86.71
2018-04-28T04:29:52.938Z,86.52
2018-04-28T04:30:52.937Z,86.33
2018-04-28T04:31:52.935Z,86.33
2018-04-28T04:32:52.928Z,86.24
2018-04-28T04:33:52.922Z,86.33
2018-04-28T04:34:52.918Z,86.38
2018-04-28T04:35:52.919Z,86.38
2018-04-28T04:36:52.909Z,86.38
2018-04-28T04:37:52.903Z,85.80
2018-04-28T04:38:52.899Z,85.71
2018-04-28T04:39:52.900Z,85.52
2018-04-28T04:40:52.893Z,85.04
2018-04-28T04:41:52.887Z,84.85
2018-04-28T04:42:52.884Z,84.23
2018-04-28T04:43:52.879Z,83.65
2018-04-28T04:44:52.875Z,83.09
2018-04-28T04:45:52.871Z,82.70
2018-04-28T04:46:52.870Z,81.89
2018-04-28T04:47:52.862Z,81.32
2018-04-28T04:48:52.861Z,81.70
2018-04-28T04:49:52.856Z,80.75
2018-04-28T04:50:52.851Z,80.27
2018-04-28T04:51:52.847Z,80.18
2018-04-28T04:52:53.612Z,80.94
2018-04-28T04:53:52.845Z,80.75
2018-04-28T04:54:52.836Z,81.03
2018-04-28T04:55:52.834Z,81.51
2018-04-28T04:56:52.858Z,81.23
2018-04-28T04:57:52.826Z,81.79
2018-04-28T04:58:52.823Z,81.70
2018-04-28T04:59:52.819Z,81.79
2018-04-28T05:00:52.818Z,81.89
2018-04-28T05:01:52.813Z,81.79
2018-04-28T05:02:52.810Z,81.60
2018-04-28T05:03:52.819Z,81.70
2018-04-28T05:04:52.803Z,82.27
2018-04-28T05:05:52.800Z,81.79
2018-04-28T05:06:52.807Z,81.32
2018-04-28T05:07:52.793Z,81.32
2018-04-28T05:08:52.795Z,81.32
2018-04-28T05:09:52.786Z,81.13
2018-04-28T05:10:52.790Z,81.60
2018-04-28T05:11:52.788Z,81.41
2018-04-28T05:12:52.849Z,80.88
2018-04-28T05:13:52.775Z,80.60
2018-04-28T05:14:52.805Z,80.50
2018-04-28T05:15:52.770Z,80.31
2018-04-28T05:16:52.770Z,79.93
2018-04-28T05:17:52.763Z,80.12
2018-04-28T05:18:52.760Z,79.46
2018-04-28T05:19:52.759Z,79.49
2018-04-28T05:20:52.782Z,79.49
2018-04-28T05:21:52.752Z,78.54
2018-04-28T05:22:52.749Z,78.54
2018-04-28T05:23:52.745Z,78.39
2018-04-28T05:24:52.747Z,76.23
2018-04-28T05:25:52.756Z,74.55
2018-04-28T05:26:52.741Z,72.39
2018-04-28T05:27:52.752Z,70.77
2018-04-28T05:28:52.739Z,70.87
2018-04-28T05:29:52.731Z,70.96
2018-04-28T05:30:52.730Z,70.87
2018-04-28T05:31:52.731Z,70.87
2018-04-28T05:32:52.727Z,70.48
2018-04-28T05:33:52.724Z,69.82
2018-04-28T05:34:52.727Z,69.53
2018-04-28T05:35:52.751Z,69.15
2018-04-28T05:36:52.722Z,69.53
2018-04-28T05:37:52.725Z,69.34
2018-04-28T05:38:52.736Z,69.43
2018-04-28T05:39:52.732Z,69.56
2018-04-28T05:40:52.720Z,68.70
2018-04-28T05:41:52.714Z,67.43
2018-04-28T05:42:52.715Z,65.36
2018-04-28T05:43:52.713Z,64.02
2018-04-28T05:44:52.714Z,64.37
2018-04-28T05:45:52.712Z,64.72
2018-04-28T05:46:52.711Z,65.87
2018-04-28T05:47:52.711Z,67.02
2018-04-28T05:48:52.712Z,68.04
2018-04-28T05:49:52.710Z,68.61
2018-04-28T05:50:52.711Z,69.15
2018-04-28T05:51:52.708Z,69.15
2018-04-28T05:52:52.711Z,70.29
2018-04-28T05:53:52.716Z,70.29
2018-04-28T05:54:52.709Z,70.10
2018-04-28T05:55:52.707Z,70.77
2018-04-28T05:56:52.706Z,70.96
2018-04-28T05:57:52.771Z,70.67
2018-04-28T05:58:52.705Z,70.77
2018-04-28T05:59:52.716Z,71.34
2018-04-28T06:00:52.717Z,71.34
2018-04-28T06:01:52.707Z,71.15
2018-04-28T06:02:52.717Z,71.25
2018-04-28T06:03:52.703Z,71.15
2018-04-28T06:04:52.701Z,71.44
2018-04-28T06:05:52.715Z,71.44
2018-04-28T06:06:52.707Z,71.53
2018-04-28T06:07:52.710Z,71.34
2018-04-28T06:08:52.698Z,71.44
2018-04-28T06:09:52.697Z,71.15
2018-04-28T06:10:52.700Z,71.25
2018-04-28T06:11:52.713Z,71.53
2018-04-28T06:12:52.694Z,71.34
2018-04-28T06:13:52.693Z,71.53
2018-04-28T06:14:52.696Z,70.96
2018-04-28T06:15:52.694Z,70.58
2018-04-28T06:16:52.691Z,71.25
2018-04-28T06:17:52.690Z,71.06
2018-04-28T06:18:52.689Z,70.77
2018-04-28T06:19:52.691Z,71.63
2018-04-28T06:20:52.691Z,71.63
2018-04-28T06:21:52.693Z,71.44
2018-04-28T06:22:52.724Z,71.15
2018-04-28T06:23:52.686Z,71.53
2018-04-28T06:24:52.771Z,71.53
2018-04-28T06:25:52.693Z,71.25
2018-04-28T06:26:52.697Z,71.72
2018-04-28T06:27:52.684Z,71.92
2018-04-28T06:28:52.686Z,72.01
2018-04-28T06:29:52.682Z,71.92
2018-04-28T06:30:52.680Z,72.11
2018-04-28T06:31:52.682Z,72.49
2018-04-28T06:32:52.680Z,72.58
2018-04-28T06:33:52.677Z,72.68
2018-04-28T06:34:52.677Z,72.58
2018-04-28T06:35:52.714Z,72.58
2018-04-28T06:36:52.684Z,72.87
2018-04-28T06:37:52.678Z,72.58
2018-04-28T06:38:52.677Z,72.05
2018-04-28T06:39:52.676Z,72.01
2018-04-28T06:40:52.677Z,72.20
2018-04-28T06:41:52.676Z,71.86
2018-04-28T06:42:52.694Z,72.24
2018-04-28T06:43:52.671Z,72.14
2018-04-28T06:44:52.671Z,72.33
2018-04-28T06:45:52.669Z,72.33
2018-04-28T06:46:52.668Z,72.05
2018-04-28T06:47:52.668Z,71.95
2018-04-28T06:48:52.668Z,71.67
2018-04-28T06:49:52.674Z,71.76
2018-04-28T06:50:52.680Z,71.86
2018-04-28T06:51:52.665Z,71.57
2018-04-28T06:52:52.663Z,71.95
2018-04-28T06:53:52.676Z,71.86
2018-04-28T06:54:52.663Z,71.47
2018-04-28T06:55:53.150Z,71.32
2018-04-28T06:56:52.661Z,71.42
2018-04-28T06:57:52.660Z,71.51
2018-04-28T06:58:52.668Z,71.13
2018-04-28T06:59:52.664Z,70.75
2018-04-28T07:00:52.673Z,70.46
2018-04-28T07:01:52.684Z,70.36
2018-04-28T07:02:52.657Z,71.13
2018-04-28T07:03:52.656Z,69.60
2018-04-28T07:04:52.669Z,70.46
2018-04-28T07:05:52.659Z,70.40
2018-04-28T07:06:52.655Z,70.01
2018-04-28T07:07:52.655Z,70.40
2018-04-28T07:08:52.661Z,70.40
2018-04-28T07:09:52.654Z,69.54
2018-04-28T07:10:52.745Z,69.25
2018-04-28T07:11:52.652Z,69.64
2018-04-28T07:12:52.658Z,68.96
2018-04-28T07:13:52.651Z,68.58
2018-04-28T07:14:52.656Z,68.58
2018-04-28T07:15:52.703Z,68.29
2018-04-28T07:16:52.656Z,68.13
2018-04-28T07:17:52.651Z,67.66
2018-04-28T07:18:52.655Z,67.47
2018-04-28T07:19:52.655Z,67.66
2018-04-28T07:20:52.650Z,67.47
2018-04-28T07:21:52.679Z,67.08
2018-04-28T07:22:52.674Z,67.66
2018-04-28T07:23:52.652Z,67.37
2018-04-28T07:24:52.653Z,67.27
2018-04-28T07:25:52.649Z,66.99
2018-04-28T07:26:53.558Z,67.08
2018-04-28T07:27:52.648Z,67.27
2018-04-28T07:28:52.650Z,67.08
2018-04-28T07:29:52.653Z,67.02
2018-04-28T07:30:52.652Z,67.11
2018-04-28T07:31:52.662Z,67.47
2018-04-28T07:32:52.654Z,66.64
2018-04-28T07:33:52.652Z,66.83
2018-04-28T07:34:52.679Z,66.83
2018-04-28T07:35:52.654Z,66.83
2018-04-28T07:36:52.661Z,67.11
2018-04-28T07:37:52.655Z,66.25
2018-04-28T07:38:52.653Z,66.35
2018-04-28T07:39:52.653Z,65.39
2018-04-28T07:40:52.655Z,65.78
2018-04-28T07:41:52.651Z,66.06
2018-04-28T07:42:52.652Z,66.35
2018-04-28T07:43:52.664Z,65.88
2018-04-28T07:44:52.665Z,66.35
2018-04-28T07:45:52.658Z,65.39
2018-04-28T07:46:52.681Z,64.72
2018-04-28T07:47:52.654Z,63.60
2018-04-28T07:48:52.660Z,63.03
2018-04-28T07:49:52.690Z,62.26
2018-04-28T07:50:52.656Z,61.50
2018-04-28T07:51:52.656Z,60.73
2018-04-28T07:52:52.661Z,61.02
2018-04-28T07:53:52.664Z,61.31
2018-04-28T07:54:52.659Z,61.31
2018-04-28T07:55:52.659Z,61.60
2018-04-28T07:56:52.664Z,62.68
2018-04-28T07:57:52.659Z,61.98
2018-04-28T07:58:52.678Z,61.53
2018-04-28T07:59:52.673Z,61.72
2018-04-28T08:00:52.663Z,61.24
2018-04-28T08:01:52.663Z,60.57
2018-04-28T08:02:52.665Z,60.67
2018-04-28T08:03:52.665Z,60.67
2018-04-28T08:04:52.672Z,59.52
2018-04-28T08:05:52.672Z,59.71
2018-04-28T08:06:52.678Z,59.55
2018-04-28T08:07:52.668Z,59.04
2018-04-28T08:08:52.746Z,58.69
2018-04-28T08:09:52.678Z,59.13
2018-04-28T08:10:52.679Z,59.74
2018-04-28T08:11:52.672Z,59.06
2018-04-28T08:12:52.676Z,58.69
2018-04-28T08:13:52.684Z,57.15
2018-04-28T08:14:52.680Z,55.62
2018-04-28T08:15:52.675Z,56.00
2018-04-28T08:16:52.678Z,56.48
2018-04-28T08:17:52.680Z,55.42
2018-04-28T08:18:52.679Z,55.80
2018-04-28T08:19:52.681Z,55.35
2018-04-28T08:20:52.687Z,56.00
2018-04-28T08:21:52.697Z,55.33
2018-04-28T08:22:52.691Z,55.62
2018-04-28T08:23:52.687Z,55.64
2018-04-28T08:24:52.688Z,55.64
2018-04-28T08:25:52.691Z,55.35
2018-04-28T08:26:52.689Z,54.68
2018-04-28T08:27:52.690Z,54.78
2018-04-28T08:28:52.699Z,55.45
2018-04-28T08:29:52.761Z,55.55
2018-04-28T08:30:52.703Z,55.74
2018-04-28T08:31:52.712Z,54.88
2018-04-28T08:32:52.697Z,53.63
2018-04-28T08:33:52.699Z,53.53
2018-04-28T08:34:52.703Z,52.79
2018-04-28T08:35:52.702Z,53.27
2018-04-28T08:36:52.757Z,53.66
2018-04-28T08:37:52.705Z,53.27
2018-04-28T08:38:52.708Z,53.27
2018-04-28T08:39:52.708Z,53.17
2018-04-28T08:40:52.712Z,53.08
2018-04-28T08:41:52.713Z,53.56
2018-04-28T08:42:52.715Z,53.36
2018-04-28T08:43:52.715Z,53.08
2018-04-28T08:44:52.719Z,52.89
2018-04-28T08:45:52.718Z,53.46
2018-04-28T08:46:52.724Z,53.66
2018-04-28T08:47:52.730Z,54.71
2018-04-28T08:48:52.730Z,54.04
2018-04-28T08:49:52.730Z,54.80
2018-04-28T08:50:52.748Z,53.30
2018-04-28T08:51:52.739Z,52.43
2018-04-28T08:52:52.731Z,52.43
2018-04-28T08:53:52.739Z,52.39
2018-04-28T08:54:52.745Z,49.36
2018-04-28T08:55:52.737Z,47.10
2018-04-28T08:56:52.774Z,43.70
2018-04-28T08:57:52.742Z,41.54
2018-04-28T08:58:52.756Z,38.41
2018-04-28T08:59:52.752Z,36.02
2018-04-28T09:00:52.757Z,34.12
2018-04-28T09:01:52.769Z,31.84
2018-04-28T09:02:52.767Z,30.41
2018-04-28T09:03:52.778Z,30.33
2018-04-28T09:04:52.773Z,28.40
2018-04-28T09:05:52.780Z,27.34
2018-04-28T09:06:52.787Z,26.97
2018-04-28T09:07:52.804Z,26.69
2018-04-28T09:08:52.801Z,24.95
2018-04-28T09:09:52.811Z,23.97
2018-04-28T09:10:52.816Z,22.80
2018-04-28T09:11:52.830Z,23.60
2018-04-28T09:12:52.837Z,22.63
2018-04-28T09:13:52.840Z,22.41
2018-04-28T09:14:52.856Z,22.69
2018-04-28T09:15:52.857Z,23.73
2018-04-28T09:16:52.873Z,25.05
2018-04-28T09:17:52.876Z,26.86
2018-04-28T09:18:52.886Z,29.36
2018-04-28T09:19:52.894Z,30.51
2018-04-28T09:20:52.900Z,30.57
2018-04-28T09:21:52.910Z,30.36
2018-04-28T09:22:52.936Z,30.82
2018-04-28T09:23:53.578Z,32.06
2018-04-28T09:24:53.410Z,31.65
2018-04-28T09:25:52.939Z,32.70
2018-04-28T09:26:52.944Z,33.47
2018-04-28T09:27:52.957Z,34.72
2018-04-28T09:28:52.958Z,35.10
2018-04-28T09:29:53.092Z,35.58
2018-04-28T09:30:52.972Z,35.85
2018-04-28T09:31:53.000Z,35.36
2018-04-28T09:32:52.999Z,36.04
2018-04-28T09:33:52.994Z,37.96
2018-04-28T09:34:52.994Z,36.61
2018-04-28T09:35:53.005Z,36.11
2018-04-28T09:36:53.006Z,36.41
2018-04-28T09:37:53.010Z,36.31
2018-04-28T09:38:53.016Z,36.60
2018-04-28T09:39:53.024Z,36.99
2018-04-28T09:40:53.030Z,36.41
2018-04-28T09:41:53.034Z,36.21
2018-04-28T09:42:53.037Z,36.51
2018-04-28T09:43:53.051Z,38.53
2018-04-28T09:44:53.053Z,38.04
2018-04-28T09:45:53.052Z,36.79
2018-04-28T09:46:53.059Z,35.83
2018-04-28T09:47:53.060Z,36.31
2018-04-28T09:48:53.064Z,35.73
2018-04-28T09:49:53.069Z,35.44
2018-04-28T09:50:53.072Z,34.86
2018-04-28T09:51:53.077Z,35.44
2018-04-28T09:52:53.165Z,35.64
2018-04-28T09:53:53.084Z,35.06
2018-04-28T09:54:53.098Z,35.73
2018-04-28T09:55:53.094Z,36.31
2018-04-28T09:56:53.111Z,36.60
2018-04-28T09:57:53.105Z,35.93
2018-04-28T09:58:53.183Z,36.51
2018-04-28T09:59:53.127Z,36.99
2018-04-28T10:00:53.505Z,36.41
2018-04-28T10:01:53.134Z,36.69
2018-04-28T10:02:53.125Z,36.51
2018-04-28T10:03:53.133Z,36.60
2018-04-28T10:04:53.131Z,37.37
2018-04-28T10:05:53.172Z,37.27
2018-04-28T10:06:53.141Z,39.59
2018-04-28T10:07:53.145Z,39.29
2018-04-28T10:08:53.154Z,39.29
2018-04-28T10:09:53.159Z,38.53
2018-04-28T10:10:53.158Z,38.33
2018-04-28T10:11:53.161Z,38.91
2018-04-28T10:12:53.166Z,38.14
2018-04-28T10:13:53.172Z,38.43
2018-04-28T10:14:53.173Z,38.33
2018-04-28T10:15:53.218Z,39.39
2018-04-28T10:16:53.226Z,38.72
2018-04-28T10:17:53.189Z,38.43
2018-04-28T10:18:53.191Z,38.62
2018-04-28T10:19:53.195Z,39.49
2018-04-28T10:20:53.199Z,39.87
2018-04-28T10:21:53.214Z,39.39
2018-04-28T10:22:53.204Z,40.07
2018-04-28T10:23:53.207Z,40.16
2018-04-28T10:24:53.217Z,39.78
2018-04-28T10:25:53.215Z,40.16
2018-04-28T10:26:53.234Z,40.07
2018-04-28T10:27:53.233Z,39.03
2018-04-28T10:28:53.238Z,38.26
2018-04-28T10:29:53.238Z,38.35
2018-04-28T10:30:53.297Z,38.16
2018-04-28T10:31:53.912Z,38.37
2018-04-28T10:32:53.264Z,38.20
2018-04-28T10:33:53.250Z,36.69
2018-04-28T10:34:53.256Z,33.94
2018-04-28T10:35:53.268Z,32.06
2018-04-28T10:36:53.266Z,30.15
2018-04-28T10:37:53.273Z,28.93
2018-04-28T10:38:53.293Z,27.19
2018-04-28T10:39:53.287Z,26.34
2018-04-28T10:40:53.292Z,25.29
2018-04-28T10:41:53.300Z,23.84
2018-04-28T10:42:53.311Z,23.96
2018-04-28T10:43:53.317Z,22.80
2018-04-28T10:44:53.344Z,22.52
2018-04-28T10:45:53.338Z,22.44
2018-04-28T10:46:53.343Z,21.17
2018-04-28T10:47:53.354Z,21.37
2018-04-28T10:48:53.366Z,20.50
2018-04-28T10:49:53.490Z,20.20
2018-04-28T10:50:53.391Z,20.80
2018-04-28T10:51:53.633Z,20.70
2018-04-28T10:52:53.424Z,18.95
2018-04-28T10:53:53.497Z,20.23
2018-04-28T10:54:53.431Z,19.36
2018-04-28T10:55:53.442Z,18.77
2018-04-28T10:56:53.497Z,19.37
2018-04-28T10:57:53.464Z,19.47
2018-04-28T10:58:53.502Z,18.29
2018-04-28T10:59:53.492Z,19.04
2018-04-28T11:00:53.501Z,20.97
2018-04-28T11:01:53.525Z,20.96
2018-04-28T11:02:54.381Z,22.41
2018-04-28T11:03:53.740Z,22.69
2018-04-28T11:04:53.549Z,22.19
2018-04-28T11:05:53.590Z,22.86
2018-04-28T11:06:53.610Z,24.88
2018-04-28T11:07:53.598Z,25.35
2018-04-28T11:08:53.602Z,26.11
2018-04-28T11:09:53.625Z,26.38
2018-04-28T11:10:53.612Z,27.53
2018-04-28T11:11:53.648Z,27.91
2018-04-28T11:12:53.639Z,29.15
2018-04-28T11:13:53.688Z,29.15
2018-04-28T11:14:53.653Z,30.58
2018-04-28T11:15:53.660Z,30.88
2018-04-28T11:16:53.672Z,31.44
2018-04-28T11:17:53.788Z,30.57
2018-04-28T11:18:53.695Z,31.33
2018-04-28T11:19:53.752Z,31.13
2018-04-28T11:20:53.701Z,30.85
2018-04-28T11:21:53.708Z,31.52
2018-04-28T11:22:53.727Z,31.91
2018-04-28T11:23:53.727Z,32.10
2018-04-28T11:24:53.731Z,32.96
2018-04-28T11:25:53.772Z,32.86
2018-04-28T11:26:53.746Z,32.96
2018-04-28T11:27:53.750Z,33.15
2018-04-28T11:28:53.817Z,33.92
2018-04-28T11:29:53.765Z,33.92
2018-04-28T11:30:53.771Z,34.41
2018-04-28T11:31:53.852Z,34.70
2018-04-28T11:32:53.846Z,34.60
2018-04-28T11:33:54.766Z,34.89
2018-04-28T11:34:53.844Z,34.70
2018-04-28T11:35:53.877Z,34.70
2018-04-28T11:36:53.882Z,34.79
2018-04-28T11:37:53.868Z,34.99
2018-04-28T11:38:53.830Z,35.28
2018-04-28T11:39:53.833Z,35.76
2018-04-28T11:40:53.838Z,35.86
2018-04-28T11:41:53.838Z,35.47
2018-04-28T11:42:53.844Z,35.86
2018-04-28T11:43:53.849Z,35.57
2018-04-28T11:44:53.860Z,35.95
2018-04-28T11:45:53.862Z,35.95
2018-04-28T11:46:53.868Z,36.15
2018-04-28T11:47:53.875Z,36.05
2018-04-28T11:48:53.880Z,36.15
2018-04-28T11:49:53.887Z,37.12
2018-04-28T11:50:53.977Z,36.92
2018-04-28T11:51:53.900Z,37.30
2018-04-28T11:52:53.904Z,36.44
2018-04-28T11:53:53.909Z,36.53
2018-04-28T11:54:53.924Z,36.63
2018-04-28T11:55:55.260Z,36.92
2018-04-28T11:56:53.930Z,36.34
2018-04-28T11:57:53.934Z,37.12
2018-04-28T11:58:54.012Z,36.82
2018-04-28T11:59:53.951Z,36.82
2018-04-28T12:00:53.951Z,37.02
2018-04-28T12:01:53.957Z,37.12
2018-04-28T12:02:53.969Z,37.60
2018-04-28T12:03:54.019Z,37.02
2018-04-28T12:04:54.010Z,36.82
2018-04-28T12:05:54.023Z,37.02
2018-04-28T12:06:54.031Z,37.79
2018-04-28T12:07:54.030Z,37.40
2018-04-28T12:08:54.031Z,37.23
2018-04-28T12:09:54.099Z,37.13
2018-04-28T12:10:54.045Z,36.84
2018-04-28T12:11:54.024Z,37.32
2018-04-28T12:12:54.030Z,37.62
2018-04-28T12:13:54.032Z,37.32
2018-04-28T12:14:54.044Z,37.23
2018-04-28T12:15:54.041Z,37.13
2018-04-28T12:16:54.049Z,36.65
2018-04-28T12:17:54.059Z,36.65
2018-04-28T12:18:54.059Z,36.36
2018-04-28T12:19:54.069Z,37.23
2018-04-28T12:20:54.084Z,36.84
2018-04-28T12:21:54.076Z,36.55
2018-04-28T12:22:54.094Z,36.65
2018-04-28T12:23:54.096Z,37.30
2018-04-28T12:24:54.100Z,36.72
2018-04-28T12:25:54.108Z,37.30
2018-04-28T12:26:54.108Z,37.60
2018-04-28T12:27:54.119Z,37.30
2018-04-28T12:28:54.146Z,37.30
2018-04-28T12:29:54.196Z,37.70
2018-04-28T12:30:54.134Z,37.88
2018-04-28T12:31:54.134Z,38.28
2018-04-28T12:32:54.150Z,38.66
2018-04-28T12:33:54.162Z,38.46
2018-04-28T12:34:54.152Z,38.37
2018-04-28T12:35:54.209Z,38.28
2018-04-28T12:36:54.186Z,38.37
2018-04-28T12:37:54.169Z,38.37
2018-04-28T12:38:54.203Z,38.46
2018-04-28T12:39:54.182Z,38.66
2018-04-28T12:40:54.231Z,38.66
2018-04-28T12:41:54.192Z,38.37
2018-04-28T12:42:54.218Z,38.46
2018-04-28T12:43:54.206Z,38.95
2018-04-28T12:44:54.247Z,39.24
2018-04-28T12:45:54.216Z,39.14
2018-04-28T12:46:54.244Z,39.34
2018-04-28T12:47:54.258Z,39.43
2018-04-28T12:48:54.273Z,39.53
2018-04-28T12:49:54.248Z,39.53
2018-04-28T12:50:54.273Z,39.53
2018-04-28T12:51:54.258Z,39.53
2018-04-28T12:52:54.299Z,39.36